Time;durP1;ratioP1;P1;durP2;ratioP2;P2;SDS_P1;SDS_P2;PMS_P1;PMS_P2;Temp;Humidity;BMP_temperature;BMP_pressure;BME280_temperature;BME280_humidity;BME280_pressure;Samples;Min_cycle;Max_cycle;Signal;HPM_P1;HPM_P2
2023/07/26 00:00:08;;;;;;;5.68;2.20;;;22.20;84.70;;;;;;5047554;28;20045;-61
2023/07/26 00:02:33;;;;;;;6.10;2.40;;;22.30;88.10;;;;;;5034645;28;20060;-60
2023/07/26 00:04:59;;;;;;;4.40;1.98;;;22.20;88.60;;;;;;5042695;28;20045;-61
2023/07/26 00:07:25;;;;;;;4.07;1.98;;;;;;;;;;5038741;28;20403;-63
2023/07/26 00:09:51;;;;;;;4.95;2.08;;;22.50;84.00;;;;;;5042761;28;20115;-62
2023/07/26 00:12:17;;;;;;;3.38;1.80;;;22.40;88.00;;;;;;5038361;28;20434;-61
2023/07/26 00:14:42;;;;;;;5.40;2.38;;;22.20;88.00;;;;;;5041097;28;20046;-65
2023/07/26 00:17:09;;;;;;;4.07;2.08;;;;;;;;;;5042457;28;20120;-63
2023/07/26 00:19:34;;;;;;;3.90;2.10;;;22.40;88.20;;;;;;5036040;28;20037;-68
2023/07/26 00:22:00;;;;;;;3.47;1.88;;;22.20;85.60;;;;;;5042010;28;20075;-60
2023/07/26 00:24:26;;;;;;;4.95;1.88;;;22.40;88.10;;;;;;5042923;28;20060;-62
2023/07/26 00:26:51;;;;;;;5.05;1.85;;;22.40;88.10;;;;;;5044540;28;20103;-65
2023/07/26 00:29:17;;;;;;;3.92;2.22;;;22.40;88.10;;;;;;5042482;28;20053;-64
2023/07/26 00:31:43;;;;;;;5.65;2.63;;;22.50;88.20;;;;;;5046796;28;20480;-69
2023/07/26 00:34:09;;;;;;;4.57;1.80;;;22.30;88.20;;;;;;5049255;28;20045;-65
2023/07/26 00:36:35;;;;;;;5.35;2.60;;;22.20;87.90;;;;;;5037368;28;20037;-61
2023/07/26 00:39:00;;;;;;;4.38;2.60;;;22.30;88.30;;;;;;5044460;28;20037;-69
2023/07/26 00:41:26;;;;;;;5.40;2.63;;;22.20;87.90;;;;;;5043013;28;20125;-60
2023/07/26 00:43:52;;;;;;;5.50;2.80;;;22.20;87.90;;;;;;5043929;28;20380;-59
2023/07/26 00:46:18;;;;;;;4.25;2.30;;;22.30;85.60;;;;;;5042984;28;20096;-61
2023/07/26 00:48:44;;;;;;;5.90;2.85;;;22.30;88.10;;;;;;5044075;28;20114;-60
2023/07/26 00:51:09;;;;;;;5.43;3.03;;;22.30;88.00;;;;;;5043927;28;20041;-65
2023/07/26 00:53:35;;;;;;;7.13;3.45;;;22.30;88.00;;;;;;5040761;28;20053;-63
2023/07/26 00:56:01;;;;;;;6.32;3.63;;;22.30;85.50;;;;;;5047856;28;20045;-67
2023/07/26 00:58:27;;;;;;;4.95;3.00;;;22.30;88.00;;;;;;5032438;28;20525;-67
2023/07/26 01:00:53;;;;;;;5.28;3.40;;;22.10;85.50;;;;;;5053520;28;20073;-60
2023/07/26 01:03:19;;;;;;;5.53;3.35;;;22.20;88.00;;;;;;5055890;28;20044;-60
2023/07/26 01:06:02;;;;;;;4.53;2.85;;;22.20;88.10;;;;;;5049260;28;20044;-61
2023/07/26 01:08:29;;;;;;;5.07;2.78;;;;;;;;;;5045681;28;20037;-61
2023/07/26 01:10:59;;;;;;;5.35;2.65;;;22.20;84.60;;;;;;5046327;28;20037;-60
2023/07/26 01:13:36;;;;;;;5.90;3.00;;;22.20;88.00;;;;;;5054057;28;20522;-60
2023/07/26 01:16:02;;;;;;;4.82;2.70;;;22.30;88.00;;;;;;5034878;28;20095;-61
2023/07/26 01:18:27;;;;;;;5.13;2.55;;;22.20;88.50;;;;;;5052421;28;20030;-60
2023/07/26 01:20:53;;;;;;;6.25;2.70;;;22.20;88.00;;;;;;5048675;28;20495;-62
2023/07/26 01:23:19;;;;;;;5.68;2.40;;;22.20;87.90;;;;;;5040798;28;20084;-62
2023/07/26 01:25:45;;;;;;;5.22;2.47;;;22.30;88.00;;;;;;5039273;28;20045;-62
2023/07/26 01:28:11;;;;;;;5.75;2.80;;;22.10;87.90;;;;;;5040477;28;20037;-60
2023/07/26 01:30:36;;;;;;;5.03;2.30;;;22.20;87.90;;;;;;5035370;28;20124;-64
2023/07/26 01:33:05;;;;;;;4.57;2.60;;;22.20;88.00;;;;;;5042988;28;20040;-60
2023/07/26 01:35:31;;;;;;;4.43;2.38;;;;;;;;;;5039246;28;20079;-62
2023/07/26 01:37:57;;;;;;;3.70;2.10;;;22.30;88.00;;;;;;5035522;28;20037;-58
2023/07/26 01:40:23;;;;;;;4.28;2.10;;;22.20;88.00;;;;;;5051824;28;20041;-60
2023/07/26 01:42:49;;;;;;;4.53;2.40;;;22.20;88.00;;;;;;5073512;28;20037;-71
2023/07/26 01:45:15;;;;;;;4.55;2.42;;;22.30;88.30;;;;;;5038109;28;20491;-61
2023/07/26 01:47:41;;;;;;;5.28;2.17;;;22.20;88.00;;;;;;5042627;28;20095;-59
2023/07/26 01:50:07;;;;;;;5.82;2.35;;;22.10;85.70;;;;;;5036530;28;20033;-60
2023/07/26 01:52:33;;;;;;;4.75;1.95;;;22.20;85.40;;;;;;5069590;28;20056;-60
2023/07/26 01:54:59;;;;;;;4.90;2.30;;;22.00;88.00;;;;;;5042237;28;20045;-67
2023/07/26 01:57:25;;;;;;;3.45;2.03;;;22.40;89.10;;;;;;5042141;28;20049;-65
2023/07/26 01:59:53;;;;;;;4.05;2.20;;;22.30;88.00;;;;;;5036444;28;20048;-61
2023/07/26 02:02:19;;;;;;;3.60;1.95;;;22.30;88.00;;;;;;5034507;28;20127;-60
2023/07/26 02:04:46;;;;;;;3.75;1.88;;;22.20;88.00;;;;;;5040074;28;20090;-59
2023/07/26 02:07:11;;;;;;;3.95;1.88;;;22.20;88.10;;;;;;5044908;28;20084;-62
2023/07/26 02:09:37;;;;;;;3.72;2.30;;;22.20;88.10;;;;;;5034611;28;20041;-60
2023/07/26 02:12:03;;;;;;;3.22;1.85;;;22.00;87.90;;;;;;5051001;28;20048;-60
2023/07/26 02:14:30;;;;;;;4.18;2.10;;;;;;;;;;5056410;28;20143;-60
2023/07/26 02:16:55;;;;;;;3.35;1.80;;;22.10;88.00;;;;;;5049659;28;20391;-60
2023/07/26 02:19:21;;;;;;;3.45;2.00;;;22.30;85.80;;;;;;5043812;28;20051;-65
2023/07/26 02:21:47;;;;;;;3.22;1.88;;;22.20;88.20;;;;;;5043044;28;20045;-61
2023/07/26 02:24:13;;;;;;;4.70;2.20;;;22.10;88.20;;;;;;5045630;28;20057;-60
2023/07/26 02:26:38;;;;;;;3.85;1.90;;;22.20;88.10;;;;;;5033992;28;20042;-60
2023/07/26 02:29:04;;;;;;;4.10;1.77;;;22.10;88.10;;;;;;5036662;28;20044;-59
2023/07/26 02:31:30;;;;;;;3.63;1.85;;;22.20;88.60;;;;;;5044659;28;20055;-60
2023/07/26 02:33:56;;;;;;;3.85;1.88;;;22.00;87.90;;;;;;5043228;28;20053;-60
2023/07/26 02:36:22;;;;;;;4.53;1.90;;;22.20;88.10;;;;;;5034230;28;20045;-61
2023/07/26 02:38:47;;;;;;;4.25;1.83;;;22.30;85.80;;;;;;5041093;28;20164;-60
2023/07/26 02:41:13;;;;;;;3.97;1.90;;;22.10;88.20;;;;;;5039269;28;20047;-64
2023/07/26 02:43:39;;;;;;;4.68;2.08;;;22.20;85.80;;;;;;5045071;28;20046;-60
2023/07/26 02:46:05;;;;;;;3.88;2.00;;;22.00;88.00;;;;;;5032532;28;20056;-59
2023/07/26 02:48:31;;;;;;;3.08;1.60;;;22.10;88.10;;;;;;5051256;28;20044;-60
2023/07/26 02:50:58;;;;;;;4.15;2.05;;;;;;;;;;5043815;28;20051;-60
2023/07/26 02:53:23;;;;;;;3.70;1.70;;;22.10;88.10;;;;;;5034792;28;20123;-68
2023/07/26 02:55:49;;;;;;;2.95;1.80;;;22.20;88.80;;;;;;5044904;28;20599;-59
2023/07/26 02:58:15;;;;;;;4.65;2.08;;;22.10;88.10;;;;;;5050349;28;20033;-61
2023/07/26 03:00:41;;;;;;;4.07;1.60;;;21.80;85.60;;;;;;5041491;28;20491;-61
2023/07/26 03:03:07;;;;;;;4.57;1.85;;;22.00;88.10;;;;;;5043536;28;20047;-67
2023/07/26 03:05:35;;;;;;;3.88;1.67;;;22.00;88.00;;;;;;5046783;28;20047;-68
2023/07/26 03:08:01;;;;;;;3.58;1.73;;;22.10;88.10;;;;;;5044075;28;20048;-60
2023/07/26 03:10:27;;;;;;;3.40;1.70;;;22.00;88.10;;;;;;5040591;28;20049;-60
2023/07/26 03:12:53;;;;;;;3.58;1.73;;;22.00;88.10;;;;;;5046525;28;20041;-60
2023/07/26 03:15:19;;;;;;;4.43;1.90;;;21.90;88.10;;;;;;5047989;28;20037;-60
2023/07/26 03:17:45;;;;;;;3.92;2.00;;;21.80;88.10;;;;;;5041005;28;20040;-61
2023/07/26 03:20:11;;;;;;;4.45;1.90;;;21.80;88.00;;;;;;5039028;28;20040;-61
2023/07/26 03:22:37;;;;;;;3.45;1.90;;;;;;;;;;5049911;28;20051;-60
2023/07/26 03:25:03;;;;;;;3.20;1.83;;;21.80;84.00;;;;;;5042661;28;20446;-59
2023/07/26 03:27:29;;;;;;;4.85;2.05;;;21.90;88.30;;;;;;5036586;28;22212;-60
2023/07/26 03:29:55;;;;;;;3.65;1.80;;;21.90;88.20;;;;;;5043834;28;20049;-63
2023/07/26 03:32:20;;;;;;;5.10;1.80;;;21.90;88.20;;;;;;5050036;28;20040;-61
2023/07/26 03:34:47;;;;;;;3.15;1.50;;;22.00;88.20;;;;;;5050963;28;20025;-61
2023/07/26 03:37:13;;;;;;;3.10;1.75;;;;;;;;;;5042657;28;20064;-60
2023/07/26 03:39:38;;;;;;;3.78;1.92;;;21.90;88.70;;;;;;5046045;28;20049;-61
2023/07/26 03:42:04;;;;;;;4.13;1.63;;;22.10;88.30;;;;;;5041869;28;20491;-61
2023/07/26 03:44:30;;;;;;;2.95;1.60;;;22.00;88.30;;;;;;5042035;28;20077;-62
2023/07/26 03:46:56;;;;;;;4.45;1.95;;;22.00;88.30;;;;;;5054981;28;20456;-63
2023/07/26 03:49:22;;;;;;;3.97;1.60;;;21.80;88.10;;;;;;5044936;28;20132;-61
2023/07/26 03:51:47;;;;;;;4.25;1.75;;;21.80;85.80;;;;;;5051388;28;20083;-60
2023/07/26 03:54:13;;;;;;;3.33;1.67;;;21.80;88.30;;;;;;5052448;28;20063;-60
2023/07/26 03:56:39;;;;;;;3.47;1.65;;;21.90;88.30;;;;;;5035076;28;20053;-59
2023/07/26 03:59:05;;;;;;;3.72;1.80;;;21.90;86.00;;;;;;5047469;28;20116;-60
2023/07/26 04:01:30;;;;;;;5.22;1.60;;;21.80;88.20;;;;;;5040538;28;20376;-59
2023/07/26 04:03:56;;;;;;;3.92;1.70;;;21.90;88.30;;;;;;5044576;28;20191;-62
2023/07/26 04:06:22;;;;;;;3.50;1.90;;;21.80;88.10;;;;;;5037419;28;20048;-65
2023/07/26 04:08:48;;;;;;;3.05;1.70;;;21.90;88.20;;;;;;5044798;28;20056;-61
2023/07/26 04:11:13;;;;;;;5.80;2.03;;;21.80;88.10;;;;;;5032959;28;20034;-59
2023/07/26 04:13:39;;;;;;;3.08;1.73;;;22.00;88.30;;;;;;5033472;28;20049;-61
2023/07/26 04:16:17;;;;;;;2.58;1.50;;;21.80;88.20;;;;;;5036804;28;20380;-61
2023/07/26 04:18:43;;;;;;;3.38;1.90;;;22.00;88.20;;;;;;5043318;28;20045;-59
2023/07/26 04:21:13;;;;;;;3.00;1.52;;;21.90;85.70;;;;;;5040401;28;20408;-68
2023/07/26 04:23:40;;;;;;;3.53;1.63;;;21.80;88.10;;;;;;5051314;28;20120;-60
2023/07/26 04:26:05;;;;;;;3.95;1.52;;;21.90;88.20;;;;;;5052511;28;20408;-61
2023/07/26 04:28:31;;;;;;;3.05;1.60;;;21.90;88.20;;;;;;5049987;28;20029;-61
2023/07/26 04:30:57;;;;;;;3.45;1.65;;;21.90;88.20;;;;;;5053859;28;20055;-60
2023/07/26 04:33:22;;;;;;;3.22;1.70;;;22.00;88.30;;;;;;5046308;28;20041;-60
2023/07/26 04:35:48;;;;;;;6.32;1.92;;;21.90;88.20;;;;;;5052582;28;20128;-60
2023/07/26 04:38:14;;;;;;;4.30;1.70;;;21.90;88.40;;;;;;5046523;28;20471;-61
2023/07/26 04:40:40;;;;;;;3.03;1.50;;;;;;;;;;5046777;28;20033;-61
2023/07/26 04:43:06;;;;;;;3.80;1.73;;;21.80;88.30;;;;;;5039251;28;20142;-59
2023/07/26 04:45:32;;;;;;;5.00;1.80;;;22.10;88.40;;;;;;5045966;28;20095;-61
2023/07/26 04:47:57;;;;;;;3.72;1.80;;;22.00;88.40;;;;;;5052556;28;20049;-67
2023/07/26 04:50:23;;;;;;;4.57;1.70;;;22.00;88.30;;;;;;5049942;28;20052;-65
2023/07/26 04:52:49;;;;;;;4.70;2.10;;;21.80;88.00;;;;;;5050980;28;20551;-71
2023/07/26 04:55:15;;;;;;;5.95;2.20;;;22.10;88.10;;;;;;5050594;28;20164;-63
2023/07/26 04:57:41;;;;;;;5.40;1.90;;;;;;;;;;5051801;28;20045;-65
2023/07/26 05:00:07;;;;;;;4.85;1.98;;;22.10;88.00;;;;;;5050542;28;20444;-69
2023/07/26 05:02:33;;;;;;;6.43;2.22;;;22.20;88.00;;;;;;5042280;28;20496;-69
2023/07/26 05:04:59;;;;;;;5.65;2.10;;;22.10;87.90;;;;;;5049406;28;20041;-64
2023/07/26 05:07:25;;;;;;;5.80;1.90;;;22.20;88.00;;;;;;5045756;28;20039;-68
2023/07/26 05:09:50;;;;;;;4.50;2.00;;;22.30;88.00;;;;;;5042072;28;20461;-62
2023/07/26 05:12:16;;;;;;;6.32;2.20;;;22.00;87.70;;;;;;5045898;28;20037;-60
2023/07/26 05:14:43;;;;;;;5.88;2.38;;;22.20;87.90;;;;;;5045314;28;20506;-60
2023/07/26 05:17:08;;;;;;;5.90;2.30;;;22.10;87.80;;;;;;5046206;28;20077;-60
2023/07/26 05:19:34;;;;;;;6.93;2.40;;;22.20;87.80;;;;;;5049225;28;20080;-60
2023/07/26 05:22:00;;;;;;;6.47;2.83;;;22.10;87.70;;;;;;5044449;28;20052;-61
2023/07/26 05:24:26;;;;;;;6.10;2.65;;;22.20;87.60;;;;;;5042475;28;20048;-60
2023/07/26 05:26:52;;;;;;;8.23;2.60;;;22.30;87.50;;;;;;5043921;28;20084;-64
2023/07/26 05:29:17;;;;;;;6.97;2.22;;;22.40;87.50;;;;;;5046363;28;20045;-66
2023/07/26 05:31:44;;;;;;;7.13;2.47;;;22.50;87.40;;;;;;5043796;28;20152;-68
2023/07/26 05:34:10;;;;;;;7.50;2.90;;;22.60;87.20;;;;;;5046855;28;20051;-66
2023/07/26 05:36:36;;;;;;;7.40;3.00;;;22.70;85.00;;;;;;5053136;28;20045;-67
2023/07/26 05:39:02;;;;;;;6.50;2.60;;;22.50;86.80;;;;;;5043443;28;20048;-67
2023/07/26 05:41:31;;;;;;;6.53;2.50;;;22.60;87.20;;;;;;5034600;28;20095;-68
2023/07/26 05:43:59;;;;;;;5.35;2.50;;;22.90;86.80;;;;;;5046511;28;20053;-64
2023/07/26 05:46:25;;;;;;;8.00;3.00;;;22.70;86.70;;;;;;5052334;28;20432;-68
2023/07/26 05:48:51;;;;;;;8.98;3.00;;;22.80;84.30;;;;;;5043313;28;20120;-66
2023/07/26 05:51:17;;;;;;;7.30;2.70;;;;;;;;;;5049595;28;20055;-65
2023/07/26 05:53:42;;;;;;;6.53;2.65;;;22.90;82.70;;;;;;5041865;28;20048;-64
2023/07/26 05:56:09;;;;;;;9.57;2.97;;;;;;;;;;5047614;28;20032;-64
2023/07/26 05:58:34;;;;;;;8.15;2.90;;;22.90;82.10;;;;;;5047122;28;20368;-64
2023/07/26 06:01:00;;;;;;;7.53;2.60;;;22.70;86.10;;;;;;5033461;28;20052;-62
2023/07/26 06:03:26;;;;;;;6.57;2.60;;;22.90;86.20;;;;;;5037052;28;20487;-64
2023/07/26 06:05:52;;;;;;;7.90;2.65;;;22.80;83.50;;;;;;5074884;28;20131;-61
2023/07/26 06:08:19;;;;;;;7.15;2.40;;;22.70;86.00;;;;;;5038799;28;20060;-59
2023/07/26 06:10:44;;;;;;;8.05;2.80;;;22.90;86.10;;;;;;5044550;28;20041;-60
2023/07/26 06:13:12;;;;;;;7.60;2.83;;;;;;;;;;5044491;28;20098;-65
2023/07/26 06:15:41;;;;;;;5.18;2.17;;;22.80;86.10;;;;;;5040590;28;20045;-65
2023/07/26 06:18:07;;;;;;;6.55;2.42;;;22.80;86.10;;;;;;5038858;28;20053;-67
2023/07/26 06:20:33;;;;;;;5.90;2.70;;;22.80;86.10;;;;;;5033687;28;20075;-67
2023/07/26 06:22:59;;;;;;;7.25;2.40;;;22.90;83.20;;;;;;5039426;28;20080;-67
2023/07/26 06:25:24;;;;;;;6.88;2.53;;;22.80;86.10;;;;;;5037110;28;20095;-67
2023/07/26 06:27:50;;;;;;;7.45;2.50;;;22.80;86.50;;;;;;5038500;28;20069;-62
2023/07/26 06:30:16;;;;;;;6.63;2.38;;;22.80;86.10;;;;;;5042121;28;20132;-59
2023/07/26 06:32:42;;;;;;;6.30;2.60;;;22.60;83.40;;;;;;5048498;28;20124;-63
2023/07/26 06:35:11;;;;;;;6.20;2.22;;;22.90;86.20;;;;;;5036973;28;20037;-61
2023/07/26 06:37:36;;;;;;;6.25;2.50;;;22.70;86.20;;;;;;5050886;28;20336;-66
2023/07/26 06:40:03;;;;;;;5.35;2.58;;;23.00;83.70;;;;;;5075078;28;20057;-64
2023/07/26 06:42:29;;;;;;;6.45;2.55;;;22.70;86.00;;;;;;5035532;28;20041;-64
2023/07/26 06:44:54;;;;;;;5.95;2.60;;;22.50;84.20;;;;;;5044022;28;20051;-69
2023/07/26 06:47:20;;;;;;;6.15;2.40;;;22.70;86.10;;;;;;5035321;28;20124;-62
2023/07/26 06:49:46;;;;;;;6.15;2.35;;;22.60;86.10;;;;;;5045319;28;20091;-69
2023/07/26 06:52:12;;;;;;;6.45;2.40;;;22.50;87.00;;;;;;5034824;28;20057;-63
2023/07/26 06:54:37;;;;;;;5.43;2.10;;;22.50;86.80;;;;;;5038855;28;20048;-58
2023/07/26 06:57:04;;;;;;;5.15;2.20;;;22.50;86.20;;;;;;5043282;28;20049;-65
2023/07/26 06:59:30;;;;;;;5.72;2.38;;;22.50;86.30;;;;;;5042359;28;20048;-66
2023/07/26 07:01:55;;;;;;;8.70;2.60;;;22.70;83.90;;;;;;5049326;28;20060;-62
2023/07/26 07:04:21;;;;;;;6.03;2.60;;;22.60;86.50;;;;;;5049651;28;20053;-58
2023/07/26 07:06:47;;;;;;;5.45;2.03;;;22.70;87.30;;;;;;5047335;28;20041;-68
2023/07/26 07:09:13;;;;;;;6.43;2.35;;;22.50;87.60;;;;;;5048331;28;20136;-63
2023/07/26 07:11:39;;;;;;;4.80;2.20;;;22.50;82.90;;;;;;5041508;28;20076;-63
2023/07/26 07:14:05;;;;;;;6.28;2.28;;;22.60;86.70;;;;;;5036595;28;20045;-65
2023/07/26 07:16:31;;;;;;;6.28;2.45;;;22.50;86.70;;;;;;5047562;28;20033;-60
2023/07/26 07:18:57;;;;;;;4.88;2.13;;;22.60;84.60;;;;;;5035136;28;20056;-63
2023/07/26 07:21:23;;;;;;;4.82;2.10;;;;;;;;;;5039767;28;20439;-63
2023/07/26 07:23:50;;;;;;;5.13;2.38;;;22.70;82.80;;;;;;5037351;28;20150;-60
2023/07/26 07:26:17;;;;;;;4.57;2.10;;;22.80;86.50;;;;;;5040084;28;20411;-58
2023/07/26 07:28:43;;;;;;;5.13;2.42;;;22.90;86.60;;;;;;5042608;28;20059;-68
2023/07/26 07:31:09;;;;;;;5.63;2.10;;;23.20;87.30;;;;;;5043531;28;20071;-68
2023/07/26 07:33:34;;;;;;;5.47;2.40;;;23.10;86.10;;;;;;5050793;28;20045;-67
2023/07/26 07:36:00;;;;;;;4.85;2.17;;;23.00;86.70;;;;;;5049302;28;20077;-67
2023/07/26 07:38:26;;;;;;;4.65;2.08;;;23.20;85.60;;;;;;5046359;28;20041;-68
2023/07/26 07:40:52;;;;;;;5.47;2.20;;;23.40;85.70;;;;;;5045537;28;20041;-66
2023/07/26 07:43:18;;;;;;;4.82;2.13;;;23.40;83.00;;;;;;5049512;28;20116;-67
2023/07/26 07:45:43;;;;;;;6.40;2.50;;;23.60;83.00;;;;;;5052647;28;20534;-65
2023/07/26 07:48:09;;;;;;;7.55;2.65;;;23.70;85.20;;;;;;5052627;28;20080;-65
2023/07/26 07:50:36;;;;;;;4.93;2.25;;;;;;;;;;5051767;28;20554;-66
2023/07/26 07:53:02;;;;;;;5.38;2.33;;;24.00;80.70;;;;;;5043196;28;20092;-67
2023/07/26 07:55:31;;;;;;;5.47;2.20;;;24.00;82.40;;;;;;5043664;28;20072;-70
2023/07/26 07:58:01;;;;;;;5.18;2.50;;;24.10;84.30;;;;;;5046031;28;20056;-61
2023/07/26 08:00:26;;;;;;;4.85;2.17;;;24.00;81.90;;;;;;5044832;28;20042;-65
2023/07/26 08:02:52;;;;;;;5.38;2.35;;;24.30;81.50;;;;;;5039071;28;20060;-69
2023/07/26 08:05:18;;;;;;;5.07;2.45;;;24.10;81.00;;;;;;5047441;28;20036;-69
2023/07/26 08:07:44;;;;;;;6.70;2.50;;;24.10;81.10;;;;;;5046657;28;20484;-67
2023/07/26 08:10:10;;;;;;;4.32;1.75;;;24.10;82.30;;;;;;5045544;28;20437;-66
2023/07/26 08:12:35;;;;;;;3.67;1.98;;;24.10;82.80;;;;;;5047925;28;20120;-66
2023/07/26 08:15:02;;;;;;;4.63;2.20;;;24.20;82.20;;;;;;5040567;28;20052;-69
2023/07/26 08:17:27;;;;;;;4.50;2.10;;;24.30;80.20;;;;;;5042280;28;20037;-65
2023/07/26 08:19:53;;;;;;;4.38;1.92;;;24.30;79.80;;;;;;5045910;28;20056;-68
2023/07/26 08:22:19;;;;;;;4.28;1.70;;;24.00;79.40;;;;;;5043190;28;20045;-68
2023/07/26 08:24:45;;;;;;;6.45;1.90;;;24.00;79.30;;;;;;5045834;28;20083;-65
2023/07/26 08:27:11;;;;;;;5.20;2.20;;;24.00;81.60;;;;;;5046878;28;20048;-68
2023/07/26 08:29:36;;;;;;;4.20;1.83;;;24.10;79.00;;;;;;5050702;28;20076;-66
2023/07/26 08:32:03;;;;;;;2.97;1.65;;;24.20;78.90;;;;;;5045926;28;20045;-65
2023/07/26 08:34:29;;;;;;;3.97;1.60;;;24.20;78.40;;;;;;5048896;28;20041;-68
2023/07/26 08:36:55;;;;;;;3.75;1.63;;;24.10;80.30;;;;;;5046579;28;20120;-64
2023/07/26 08:39:20;;;;;;;3.58;1.80;;;24.10;80.00;;;;;;5044185;28;20602;-61
2023/07/26 08:41:46;;;;;;;4.43;1.70;;;24.10;77.60;;;;;;5045365;28;20056;-62
2023/07/26 08:44:12;;;;;;;4.88;1.80;;;23.80;77.50;;;;;;5045884;28;20060;-67
2023/07/26 08:46:42;;;;;;;2.40;1.58;;;24.10;77.60;;;;;;5036385;28;20053;-66
2023/07/26 08:49:08;;;;;;;4.15;2.08;;;24.00;76.30;;;;;;5039938;28;20045;-65
2023/07/26 08:51:34;;;;;;;11.90;2.25;;;23.80;79.70;;;;;;5040238;28;20037;-62
2023/07/26 08:53:59;;;;;;;12.68;2.10;;;23.80;80.20;;;;;;5069658;28;20057;-65
2023/07/26 08:56:26;;;;;;;8.55;2.15;;;23.80;77.40;;;;;;5047380;28;20041;-61
2023/07/26 08:58:52;;;;;;;4.90;2.00;;;23.60;77.40;;;;;;5050197;28;20041;-59
2023/07/26 09:01:17;;;;;;;3.70;1.63;;;23.50;79.60;;;;;;5035355;28;20403;-64
2023/07/26 09:03:43;;;;;;;4.35;1.67;;;23.90;77.50;;;;;;5037384;28;20111;-64
2023/07/26 09:06:09;;;;;;;3.53;1.60;;;23.60;77.30;;;;;;5036374;28;20053;-68
2023/07/26 09:08:35;;;;;;;3.83;1.50;;;23.60;79.70;;;;;;5048054;28;20032;-65
2023/07/26 09:11:18;;;;;;;4.00;1.38;;;23.70;77.30;;;;;;5050028;28;20523;-66
2023/07/26 09:13:54;;;;;;;2.63;1.45;;;23.80;76.70;;;;;;5033581;28;20511;-73
2023/07/26 09:16:20;;;;;;;2.95;1.60;;;23.80;79.50;;;;;;5039874;28;20040;-74
2023/07/26 09:19:00;;;;;;;3.40;1.80;;;23.80;76.90;;;;;;5046723;28;20114;-74
2023/07/26 09:21:34;;;;;;;2.47;1.60;;;23.90;79.70;;;;;;5049721;28;20049;-68
2023/07/26 09:24:00;;;;;;;2.95;1.40;;;23.70;78.80;;;;;;5037189;28;20045;-64
2023/07/26 09:26:40;;;;;;;3.13;1.80;;;23.50;78.80;;;;;;5051652;28;20041;-69
2023/07/26 09:29:13;;;;;;;3.38;1.45;;;23.90;76.40;;;;;;5044666;28;20049;-62
2023/07/26 09:31:41;;;;;;;5.25;1.98;;;23.80;76.40;;;;;;5040520;28;20038;-61
2023/07/26 09:34:08;;;;;;;3.65;1.60;;;23.80;76.40;;;;;;5044804;28;20497;-62
2023/07/26 09:36:49;;;;;;;3.38;1.40;;;23.70;78.50;;;;;;5044471;28;20036;-73
2023/07/26 09:39:16;;;;;;;3.65;1.40;;;23.90;78.90;;;;;;5046900;28;20066;-62
2023/07/26 09:41:42;;;;;;;2.75;1.52;;;23.50;76.10;;;;;;5045048;28;20439;-73
2023/07/26 09:44:24;;;;;;;2.55;1.42;;;23.70;78.50;;;;;;5039272;28;20053;-63
2023/07/26 09:46:57;;;;;;;2.97;1.42;;;24.00;76.30;;;;;;5046746;28;20029;-72
2023/07/26 09:49:27;;;;;;;3.47;1.50;;;23.80;78.40;;;;;;5046260;28;20045;-69
2023/07/26 09:51:54;;;;;;;4.40;1.67;;;24.00;74.70;;;;;;5052562;28;20128;-74
2023/07/26 09:54:21;;;;;;;3.13;1.60;;;23.60;78.50;;;;;;5038535;28;20082;-74
2023/07/26 09:56:46;;;;;;;4.38;1.60;;;23.80;75.80;;;;;;5044322;28;20437;-72
2023/07/26 09:59:13;;;;;;;3.83;1.73;;;23.80;78.20;;;;;;5046380;28;20045;-63
2023/07/26 10:01:44;;;;;;;2.67;1.58;;;23.80;75.70;;;;;;5044207;28;20092;-74
2023/07/26 10:04:15;;;;;;;2.97;1.50;;;24.00;76.00;;;;;;5033449;28;20376;-72
2023/07/26 10:06:41;;;;;;;2.53;1.48;;;23.70;75.90;;;;;;5046608;28;20044;-72
2023/07/26 10:09:16;;;;;;;3.80;1.70;;;23.80;78.30;;;;;;5045576;28;20562;-73
2023/07/26 10:11:43;;;;;;;3.30;1.77;;;23.60;75.70;;;;;;5044165;28;20036;-75
2023/07/26 10:14:10;;;;;;;4.18;1.67;;;23.80;76.00;;;;;;5040528;28;20041;-72
2023/07/26 10:16:37;;;;;;;4.22;1.75;;;23.80;78.60;;;;;;5050442;28;20071;-67
2023/07/26 10:19:03;;;;;;;2.72;1.55;;;23.90;76.30;;;;;;5049664;28;20060;-74
2023/07/26 10:21:29;;;;;;;4.05;1.80;;;23.80;76.20;;;;;;5037941;28;20037;-60
2023/07/26 10:23:57;;;;;;;3.58;1.75;;;23.70;78.80;;;;;;5023274;28;20542;-59
2023/07/26 10:26:22;;;;;;;4.93;2.30;;;23.60;76.30;;;;;;5046459;28;20087;-63
2023/07/26 10:28:48;;;;;;;4.75;2.08;;;23.70;78.50;;;;;;5039229;28;20076;-72
2023/07/26 10:31:14;;;;;;;3.55;1.65;;;23.80;75.70;;;;;;5064476;28;20403;-69
2023/07/26 10:33:44;;;;;;;2.88;1.60;;;23.60;78.70;;;;;;5044500;28;20037;-73
2023/07/26 10:36:10;;;;;;;10.27;2.30;;;23.70;78.60;;;;;;5034277;28;20073;-66
2023/07/26 10:38:40;;;;;;;7.85;2.03;;;23.70;76.00;;;;;;5039679;28;20036;-69
2023/07/26 10:41:22;;;;;;;7.72;2.20;;;23.70;75.90;;;;;;5033825;28;20079;-69
2023/07/26 10:43:49;;;;;;;8.93;2.42;;;23.80;76.30;;;;;;5073310;28;20800;-68
2023/07/26 10:46:15;;;;;;;6.13;2.88;;;23.90;76.10;;;;;;5045454;28;20073;-69
2023/07/26 10:48:41;;;;;;;7.10;3.00;;;23.90;75.60;;;;;;5045379;28;20076;-64
2023/07/26 10:51:31;;;;;;;5.97;3.05;;;23.80;75.40;;;;;;5039486;28;20541;-61
2023/07/26 10:53:58;;;;;;;6.88;3.70;;;23.50;74.20;;;;;;5039556;28;20045;-60
2023/07/26 10:56:26;;;;;;;7.20;2.63;;;23.80;75.70;;;;;;5041090;28;20386;-61
2023/07/26 10:59:04;;;;;;;6.40;2.50;;;23.80;75.50;;;;;;5032470;28;20515;-64
2023/07/26 11:01:39;;;;;;;6.47;2.58;;;23.50;79.10;;;;;;5046400;28;20498;-59
2023/07/26 11:04:13;;;;;;;5.03;2.20;;;23.50;79.40;;;;;;5040150;28;20048;-68
2023/07/26 11:06:58;;;;;;;5.25;2.70;;;23.60;77.40;;;;;;5053414;28;20109;-63
2023/07/26 11:09:28;;;;;;;6.80;2.85;;;23.60;78.00;;;;;;5052314;28;20055;-69
2023/07/26 11:11:58;;;;;;;6.47;2.28;;;23.50;77.80;;;;;;5050915;28;20040;-60
2023/07/26 11:14:25;;;;;;;4.07;2.13;;;23.20;76.30;;;;;;5057036;28;20055;-67
2023/07/26 11:16:52;;;;;;;4.97;2.28;;;23.50;78.10;;;;;;5051184;28;20041;-68
2023/07/26 11:19:18;;;;;;;5.78;2.50;;;23.10;78.10;;;;;;5060853;28;20085;-59
2023/07/26 11:21:44;;;;;;;4.80;2.75;;;23.50;78.00;;;;;;5041691;28;20060;-61
2023/07/26 11:24:09;;;;;;;5.97;2.60;;;23.40;78.20;;;;;;5047775;28;20058;-65
2023/07/26 11:26:45;;;;;;;5.43;2.55;;;23.50;77.90;;;;;;5040154;28;20041;-70
2023/07/26 11:29:11;;;;;;;4.82;2.50;;;23.40;81.10;;;;;;5037552;28;20089;-60
2023/07/26 11:31:37;;;;;;;5.40;2.33;;;23.90;78.40;;;;;;5038105;28;20042;-65
2023/07/26 11:34:18;;;;;;;3.67;2.00;;;23.60;78.20;;;;;;5037941;28;20037;-67
2023/07/26 11:36:44;;;;;;;5.22;2.22;;;23.50;77.60;;;;;;5045630;28;20069;-69
2023/07/26 11:39:20;;;;;;;4.93;2.20;;;23.60;81.80;;;;;;5042582;28;20099;-68
2023/07/26 11:41:46;;;;;;;3.47;2.00;;;23.50;79.30;;;;;;5035032;28;20050;-69
2023/07/26 11:44:13;;;;;;;4.15;2.00;;;23.40;82.20;;;;;;5034371;28;20067;-67
2023/07/26 11:46:39;;;;;;;5.07;2.20;;;23.70;79.10;;;;;;5045026;28;20045;-67
2023/07/26 11:49:06;;;;;;;4.75;2.20;;;23.40;79.30;;;;;;5038926;28;20426;-66
2023/07/26 11:51:34;;;;;;;6.55;2.42;;;23.30;79.40;;;;;;5050267;28;20041;-65
2023/07/26 11:54:00;;;;;;;5.43;1.80;;;23.60;79.80;;;;;;5050131;28;20491;-64
2023/07/26 11:56:30;;;;;;;6.50;2.15;;;23.30;79.80;;;;;;5044314;28;20033;-68
2023/07/26 11:58:58;;;;;;;7.65;2.08;;;23.10;82.20;;;;;;5043366;28;20061;-58
2023/07/26 12:01:24;;;;;;;6.93;2.00;;;23.10;82.30;;;;;;5041708;28;20055;-60
2023/07/26 12:03:51;;;;;;;8.65;2.50;;;23.10;82.40;;;;;;5046839;28;20050;-69
2023/07/26 12:06:20;;;;;;;8.60;2.03;;;23.00;82.30;;;;;;5038331;28;20249;-67
2023/07/26 12:08:47;;;;;;;8.52;2.28;;;23.00;78.90;;;;;;5043050;28;20056;-66
2023/07/26 12:11:17;;;;;;;8.10;1.90;;;22.90;79.80;;;;;;5050110;28;20073;-68
2023/07/26 12:13:44;;;;;;;6.38;2.00;;;23.00;80.00;;;;;;5050169;28;20037;-68
2023/07/26 12:16:09;;;;;;;4.45;2.00;;;22.90;82.40;;;;;;5041487;28;20048;-66
2023/07/26 12:18:35;;;;;;;4.82;1.95;;;22.90;83.60;;;;;;5043159;28;20419;-62
2023/07/26 12:21:02;;;;;;;5.05;2.05;;;23.10;80.20;;;;;;5050499;28;20443;-70
2023/07/26 12:23:28;;;;;;;3.00;1.40;;;22.80;80.50;;;;;;5047216;28;20041;-70
2023/07/26 12:25:56;;;;;;;6.10;1.85;;;23.10;80.70;;;;;;5044878;28;20056;-63
2023/07/26 12:28:25;;;;;;;4.13;1.80;;;22.90;83.40;;;;;;5033652;28;20061;-65
2023/07/26 12:30:57;;;;;;;5.10;1.92;;;23.00;84.30;;;;;;5043917;28;20044;-66
2023/07/26 12:33:26;;;;;;;4.47;1.70;;;23.00;83.70;;;;;;5041539;28;20100;-66
2023/07/26 12:35:55;;;;;;;6.40;1.80;;;23.30;80.90;;;;;;5049522;28;20064;-62
2023/07/26 12:38:22;;;;;;;4.60;1.90;;;22.90;84.30;;;;;;5045483;28;20049;-65
2023/07/26 12:40:49;;;;;;;7.07;2.13;;;23.20;82.10;;;;;;5039456;28;20046;-69
2023/07/26 12:43:27;;;;;;;4.63;2.42;;;23.10;84.30;;;;;;5041257;28;20106;-64
2023/07/26 12:45:54;;;;;;;5.00;2.00;;;23.20;85.50;;;;;;5054086;28;20490;-66
2023/07/26 12:48:20;;;;;;;5.47;2.10;;;22.70;82.10;;;;;;5043640;28;20048;-69